sensor_id;sensor_type;location;lat;lon;timestamp;P1;durP1;ratioP1;P2;durP2;ratioP2
55114;SDS011;41010;53.252;5.786;2023-07-30T00:00:41;16.20;;;3.78;;
55114;SDS011;41010;53.252;5.786;2023-07-30T00:03:08;8.52;;;3.17;;
55114;SDS011;41010;53.252;5.786;2023-07-30T00:05:35;10.77;;;3.38;;
55114;SDS011;41010;53.252;5.786;2023-07-30T00:08:03;14.93;;;3.83;;
55114;SDS011;41010;53.252;5.786;2023-07-30T00:10:30;13.63;;;3.40;;
55114;SDS011;41010;53.252;5.786;2023-07-30T00:12:58;15.45;;;3.58;;
55114;SDS011;41010;53.252;5.786;2023-07-30T00:15:26;17.10;;;3.67;;
55114;SDS011;41010;53.252;5.786;2023-07-30T00:17:53;13.48;;;3.70;;
55114;SDS011;41010;53.252;5.786;2023-07-30T00:20:20;20.80;;;3.97;;
55114;SDS011;41010;53.252;5.786;2023-07-30T00:22:47;17.27;;;3.72;;
55114;SDS011;41010;53.252;5.786;2023-07-30T00:25:15;14.40;;;3.70;;
55114;SDS011;41010;53.252;5.786;2023-07-30T00:27:42;16.48;;;3.85;;
55114;SDS011;41010;53.252;5.786;2023-07-30T00:30:11;13.90;;;3.60;;
55114;SDS011;41010;53.252;5.786;2023-07-30T00:32:38;12.25;;;3.30;;
55114;SDS011;41010;53.252;5.786;2023-07-30T00:35:08;20.95;;;4.07;;
55114;SDS011;41010;53.252;5.786;2023-07-30T00:37:35;16.38;;;3.63;;
55114;SDS011;41010;53.252;5.786;2023-07-30T00:40:03;16.25;;;3.72;;
55114;SDS011;41010;53.252;5.786;2023-07-30T00:42:31;13.70;;;3.75;;
55114;SDS011;41010;53.252;5.786;2023-07-30T00:44:58;16.08;;;4.03;;
55114;SDS011;41010;53.252;5.786;2023-07-30T00:47:27;16.92;;;3.78;;
55114;SDS011;41010;53.252;5.786;2023-07-30T00:49:54;18.52;;;4.10;;
55114;SDS011;41010;53.252;5.786;2023-07-30T00:52:21;14.80;;;3.78;;
55114;SDS011;41010;53.252;5.786;2023-07-30T00:54:49;13.40;;;4.15;;
55114;SDS011;41010;53.252;5.786;2023-07-30T00:57:18;15.98;;;3.53;;
55114;SDS011;41010;53.252;5.786;2023-07-30T00:59:46;14.20;;;3.35;;
55114;SDS011;41010;53.252;5.786;2023-07-30T01:02:14;18.02;;;3.83;;
55114;SDS011;41010;53.252;5.786;2023-07-30T01:04:43;15.02;;;3.95;;
55114;SDS011;41010;53.252;5.786;2023-07-30T01:07:10;16.02;;;3.55;;
55114;SDS011;41010;53.252;5.786;2023-07-30T01:09:38;10.95;;;3.38;;
55114;SDS011;41010;53.252;5.786;2023-07-30T01:12:05;16.52;;;4.00;;
55114;SDS011;41010;53.252;5.786;2023-07-30T01:14:33;17.63;;;3.83;;
55114;SDS011;41010;53.252;5.786;2023-07-30T01:17:03;18.30;;;3.72;;
55114;SDS011;41010;53.252;5.786;2023-07-30T01:19:30;12.85;;;3.70;;
55114;SDS011;41010;53.252;5.786;2023-07-30T01:21:59;14.93;;;3.85;;
55114;SDS011;41010;53.252;5.786;2023-07-30T01:24:26;19.30;;;3.67;;
55114;SDS011;41010;53.252;5.786;2023-07-30T01:26:54;12.98;;;3.33;;
55114;SDS011;41010;53.252;5.786;2023-07-30T01:29:22;18.35;;;4.03;;
55114;SDS011;41010;53.252;5.786;2023-07-30T01:31:53;15.68;;;3.83;;
55114;SDS011;41010;53.252;5.786;2023-07-30T01:34:21;18.02;;;4.18;;
55114;SDS011;41010;53.252;5.786;2023-07-30T01:36:49;14.80;;;3.47;;
55114;SDS011;41010;53.252;5.786;2023-07-30T01:39:18;20.20;;;4.25;;
55114;SDS011;41010;53.252;5.786;2023-07-30T01:41:46;17.70;;;3.85;;
55114;SDS011;41010;53.252;5.786;2023-07-30T01:44:13;19.13;;;3.92;;
55114;SDS011;41010;53.252;5.786;2023-07-30T01:46:40;22.65;;;4.28;;
55114;SDS011;41010;53.252;5.786;2023-07-30T01:49:08;13.18;;;3.45;;
55114;SDS011;41010;53.252;5.786;2023-07-30T01:51:35;18.45;;;3.30;;
55114;SDS011;41010;53.252;5.786;2023-07-30T01:54:02;12.75;;;3.55;;
55114;SDS011;41010;53.252;5.786;2023-07-30T01:56:31;15.70;;;3.85;;
55114;SDS011;41010;53.252;5.786;2023-07-30T01:58:58;15.88;;;3.13;;
55114;SDS011;41010;53.252;5.786;2023-07-30T02:01:25;11.50;;;2.78;;
55114;SDS011;41010;53.252;5.786;2023-07-30T02:03:52;18.50;;;4.05;;
55114;SDS011;41010;53.252;5.786;2023-07-30T02:06:20;21.77;;;3.30;;
55114;SDS011;41010;53.252;5.786;2023-07-30T02:08:47;20.48;;;3.75;;
55114;SDS011;41010;53.252;5.786;2023-07-30T02:11:14;12.90;;;3.05;;
55114;SDS011;41010;53.252;5.786;2023-07-30T02:13:43;14.95;;;3.20;;
55114;SDS011;41010;53.252;5.786;2023-07-30T02:16:10;15.90;;;2.97;;
55114;SDS011;41010;53.252;5.786;2023-07-30T02:18:37;18.13;;;2.88;;
55114;SDS011;41010;53.252;5.786;2023-07-30T02:21:05;14.93;;;3.83;;
55114;SDS011;41010;53.252;5.786;2023-07-30T02:23:32;12.80;;;2.92;;
55114;SDS011;41010;53.252;5.786;2023-07-30T02:25:59;11.75;;;2.95;;
55114;SDS011;41010;53.252;5.786;2023-07-30T02:28:26;11.27;;;2.63;;
55114;SDS011;41010;53.252;5.786;2023-07-30T02:30:55;19.98;;;3.60;;
55114;SDS011;41010;53.252;5.786;2023-07-30T02:33:22;19.73;;;3.33;;
55114;SDS011;41010;53.252;5.786;2023-07-30T02:35:49;17.05;;;3.25;;
55114;SDS011;41010;53.252;5.786;2023-07-30T02:38:17;14.23;;;2.95;;
55114;SDS011;41010;53.252;5.786;2023-07-30T02:40:44;12.13;;;2.67;;
55114;SDS011;41010;53.252;5.786;2023-07-30T02:43:11;12.07;;;3.17;;
55114;SDS011;41010;53.252;5.786;2023-07-30T02:45:38;15.07;;;2.78;;
55114;SDS011;41010;53.252;5.786;2023-07-30T02:48:07;13.93;;;2.47;;
55114;SDS011;41010;53.252;5.786;2023-07-30T02:50:34;11.52;;;2.72;;
55114;SDS011;41010;53.252;5.786;2023-07-30T02:53:01;19.02;;;3.05;;
55114;SDS011;41010;53.252;5.786;2023-07-30T02:55:29;15.90;;;3.25;;
55114;SDS011;41010;53.252;5.786;2023-07-30T02:57:56;16.98;;;3.20;;
55114;SDS011;41010;53.252;5.786;2023-07-30T03:00:23;13.07;;;2.72;;
55114;SDS011;41010;53.252;5.786;2023-07-30T03:02:50;10.98;;;3.05;;
55114;SDS011;41010;53.252;5.786;2023-07-30T03:05:19;9.70;;;2.42;;
55114;SDS011;41010;53.252;5.786;2023-07-30T03:07:46;14.18;;;2.75;;
55114;SDS011;41010;53.252;5.786;2023-07-30T03:10:13;13.15;;;2.40;;
55114;SDS011;41010;53.252;5.786;2023-07-30T03:12:41;11.70;;;2.08;;
55114;SDS011;41010;53.252;5.786;2023-07-30T03:15:08;18.75;;;2.50;;
55114;SDS011;41010;53.252;5.786;2023-07-30T03:17:36;11.30;;;1.95;;
55114;SDS011;41010;53.252;5.786;2023-07-30T03:20:03;9.90;;;1.95;;
55114;SDS011;41010;53.252;5.786;2023-07-30T03:22:32;12.32;;;1.88;;
55114;SDS011;41010;53.252;5.786;2023-07-30T03:24:59;9.52;;;1.98;;
55114;SDS011;41010;53.252;5.786;2023-07-30T03:27:26;7.57;;;1.60;;
55114;SDS011;41010;53.252;5.786;2023-07-30T03:29:53;7.97;;;1.40;;
55114;SDS011;41010;53.252;5.786;2023-07-30T03:32:21;6.20;;;1.65;;
55114;SDS011;41010;53.252;5.786;2023-07-30T03:34:48;7.25;;;1.48;;
55114;SDS011;41010;53.252;5.786;2023-07-30T03:37:15;7.75;;;1.15;;
55114;SDS011;41010;53.252;5.786;2023-07-30T03:39:44;5.90;;;1.20;;
55114;SDS011;41010;53.252;5.786;2023-07-30T03:42:11;9.05;;;1.30;;
55114;SDS011;41010;53.252;5.786;2023-07-30T03:44:38;7.03;;;1.10;;
55114;SDS011;41010;53.252;5.786;2023-07-30T03:47:05;5.07;;;1.48;;
55114;SDS011;41010;53.252;5.786;2023-07-30T03:49:33;4.50;;;1.30;;
55114;SDS011;41010;53.252;5.786;2023-07-30T03:52:00;5.28;;;1.02;;
55114;SDS011;41010;53.252;5.786;2023-07-30T03:54:27;3.75;;;1.10;;
55114;SDS011;41010;53.252;5.786;2023-07-30T03:56:56;6.05;;;0.95;;
55114;SDS011;41010;53.252;5.786;2023-07-30T03:59:23;8.00;;;0.80;;
55114;SDS011;41010;53.252;5.786;2023-07-30T04:01:50;5.75;;;1.13;;
55114;SDS011;41010;53.252;5.786;2023-07-30T04:04:17;4.75;;;0.98;;
55114;SDS011;41010;53.252;5.786;2023-07-30T04:06:45;5.00;;;1.00;;
55114;SDS011;41010;53.252;5.786;2023-07-30T04:09:12;4.53;;;0.93;;
55114;SDS011;41010;53.252;5.786;2023-07-30T04:11:39;7.25;;;1.00;;
55114;SDS011;41010;53.252;5.786;2023-07-30T04:14:08;3.97;;;0.80;;
55114;SDS011;41010;53.252;5.786;2023-07-30T04:16:35;10.32;;;0.95;;
55114;SDS011;41010;53.252;5.786;2023-07-30T04:19:02;4.30;;;0.95;;
55114;SDS011;41010;53.252;5.786;2023-07-30T04:21:30;5.10;;;1.10;;
55114;SDS011;41010;53.252;5.786;2023-07-30T04:23:57;2.25;;;0.80;;
55114;SDS011;41010;53.252;5.786;2023-07-30T04:26:24;9.70;;;1.20;;
55114;SDS011;41010;53.252;5.786;2023-07-30T04:28:51;10.20;;;1.23;;
55114;SDS011;41010;53.252;5.786;2023-07-30T04:31:20;8.30;;;1.15;;
55114;SDS011;41010;53.252;5.786;2023-07-30T04:33:47;2.85;;;0.80;;
55114;SDS011;41010;53.252;5.786;2023-07-30T04:36:14;9.00;;;1.05;;
55114;SDS011;41010;53.252;5.786;2023-07-30T04:38:42;6.03;;;1.20;;
55114;SDS011;41010;53.252;5.786;2023-07-30T04:41:09;5.32;;;0.88;;
55114;SDS011;41010;53.252;5.786;2023-07-30T04:43:36;7.63;;;1.05;;
55114;SDS011;41010;53.252;5.786;2023-07-30T04:46:03;7.43;;;1.00;;
55114;SDS011;41010;53.252;5.786;2023-07-30T04:48:32;9.35;;;1.33;;
55114;SDS011;41010;53.252;5.786;2023-07-30T04:50:59;8.70;;;1.23;;
55114;SDS011;41010;53.252;5.786;2023-07-30T04:53:26;4.90;;;1.20;;
55114;SDS011;41010;53.252;5.786;2023-07-30T04:55:57;7.95;;;1.40;;
55114;SDS011;41010;53.252;5.786;2023-07-30T04:58:24;4.88;;;1.30;;
55114;SDS011;41010;53.252;5.786;2023-07-30T05:00:51;6.70;;;1.15;;
55114;SDS011;41010;53.252;5.786;2023-07-30T05:03:19;5.80;;;1.00;;
55114;SDS011;41010;53.252;5.786;2023-07-30T05:05:47;7.40;;;1.30;;
55114;SDS011;41010;53.252;5.786;2023-07-30T05:08:14;10.80;;;1.50;;
55114;SDS011;41010;53.252;5.786;2023-07-30T05:10:42;6.05;;;1.38;;
55114;SDS011;41010;53.252;5.786;2023-07-30T05:13:09;10.45;;;1.52;;
55114;SDS011;41010;53.252;5.786;2023-07-30T05:15:38;7.40;;;1.25;;
55114;SDS011;41010;53.252;5.786;2023-07-30T05:18:05;6.57;;;1.25;;
55114;SDS011;41010;53.252;5.786;2023-07-30T05:20:32;6.07;;;1.00;;
55114;SDS011;41010;53.252;5.786;2023-07-30T05:23:01;9.52;;;1.80;;
55114;SDS011;41010;53.252;5.786;2023-07-30T05:25:28;6.18;;;1.33;;
55114;SDS011;41010;53.252;5.786;2023-07-30T05:27:55;7.18;;;1.25;;
55114;SDS011;41010;53.252;5.786;2023-07-30T05:30:23;7.40;;;1.20;;
55114;SDS011;41010;53.252;5.786;2023-07-30T05:32:50;5.53;;;1.20;;
55114;SDS011;41010;53.252;5.786;2023-07-30T05:35:17;7.80;;;1.48;;
55114;SDS011;41010;53.252;5.786;2023-07-30T05:37:44;4.47;;;0.82;;
55114;SDS011;41010;53.252;5.786;2023-07-30T05:40:13;6.50;;;1.15;;
55114;SDS011;41010;53.252;5.786;2023-07-30T05:42:40;9.43;;;1.15;;
55114;SDS011;41010;53.252;5.786;2023-07-30T05:45:08;12.85;;;1.50;;
55114;SDS011;41010;53.252;5.786;2023-07-30T05:47:35;11.18;;;1.50;;
55114;SDS011;41010;53.252;5.786;2023-07-30T05:50:03;10.07;;;1.45;;
55114;SDS011;41010;53.252;5.786;2023-07-30T05:52:30;9.05;;;1.40;;
55114;SDS011;41010;53.252;5.786;2023-07-30T05:54:57;5.40;;;1.23;;
55114;SDS011;41010;53.252;5.786;2023-07-30T05:57:26;7.63;;;1.35;;
55114;SDS011;41010;53.252;5.786;2023-07-30T05:59:53;4.60;;;1.10;;
55114;SDS011;41010;53.252;5.786;2023-07-30T06:02:21;7.03;;;1.27;;
55114;SDS011;41010;53.252;5.786;2023-07-30T06:04:48;4.32;;;1.38;;
55114;SDS011;41010;53.252;5.786;2023-07-30T06:07:15;10.63;;;1.67;;
55114;SDS011;41010;53.252;5.786;2023-07-30T06:09:43;6.30;;;1.20;;
55114;SDS011;41010;53.252;5.786;2023-07-30T06:12:10;6.57;;;1.10;;
55114;SDS011;41010;53.252;5.786;2023-07-30T06:14:39;6.40;;;1.45;;
55114;SDS011;41010;53.252;5.786;2023-07-30T06:17:06;12.10;;;1.60;;
55114;SDS011;41010;53.252;5.786;2023-07-30T06:19:34;2.20;;;0.93;;
55114;SDS011;41010;53.252;5.786;2023-07-30T06:22:01;8.38;;;1.60;;
55114;SDS011;41010;53.252;5.786;2023-07-30T06:24:28;8.02;;;1.45;;
55114;SDS011;41010;53.252;5.786;2023-07-30T06:26:55;7.72;;;1.30;;
55114;SDS011;41010;53.252;5.786;2023-07-30T06:29:23;9.13;;;1.20;;
55114;SDS011;41010;53.252;5.786;2023-07-30T06:31:51;6.00;;;1.23;;
55114;SDS011;41010;53.252;5.786;2023-07-30T06:34:18;4.75;;;0.98;;
55114;SDS011;41010;53.252;5.786;2023-07-30T06:36:46;6.03;;;0.90;;
55114;SDS011;41010;53.252;5.786;2023-07-30T06:39:13;8.68;;;1.20;;
55114;SDS011;41010;53.252;5.786;2023-07-30T06:41:40;4.03;;;1.08;;
55114;SDS011;41010;53.252;5.786;2023-07-30T06:44:07;7.25;;;1.17;;
55114;SDS011;41010;53.252;5.786;2023-07-30T06:46:35;4.10;;;1.10;;
55114;SDS011;41010;53.252;5.786;2023-07-30T06:49:04;5.57;;;1.20;;
55114;SDS011;41010;53.252;5.786;2023-07-30T06:51:31;8.48;;;1.30;;
55114;SDS011;41010;53.252;5.786;2023-07-30T06:53:58;11.43;;;1.40;;
55114;SDS011;41010;53.252;5.786;2023-07-30T06:56:26;9.95;;;1.33;;
55114;SDS011;41010;53.252;5.786;2023-07-30T06:58:53;8.68;;;1.23;;
55114;SDS011;41010;53.252;5.786;2023-07-30T07:01:20;10.07;;;1.38;;
55114;SDS011;41010;53.252;5.786;2023-07-30T07:03:47;6.57;;;1.05;;
55114;SDS011;41010;53.252;5.786;2023-07-30T07:06:16;6.80;;;1.00;;
55114;SDS011;41010;53.252;5.786;2023-07-30T07:08:43;8.93;;;1.75;;
55114;SDS011;41010;53.252;5.786;2023-07-30T07:11:11;9.20;;;1.80;;
55114;SDS011;41010;53.252;5.786;2023-07-30T07:13:38;8.15;;;1.48;;
55114;SDS011;41010;53.252;5.786;2023-07-30T07:16:05;9.30;;;1.13;;
55114;SDS011;41010;53.252;5.786;2023-07-30T07:18:32;6.70;;;1.10;;
55114;SDS011;41010;53.252;5.786;2023-07-30T07:20:59;7.82;;;1.38;;
55114;SDS011;41010;53.252;5.786;2023-07-30T07:23:29;8.43;;;1.45;;
55114;SDS011;41010;53.252;5.786;2023-07-30T07:25:56;10.48;;;1.48;;
55114;SDS011;41010;53.252;5.786;2023-07-30T07:28:23;10.15;;;1.55;;
55114;SDS011;41010;53.252;5.786;2023-07-30T07:30:50;7.25;;;1.10;;
55114;SDS011;41010;53.252;5.786;2023-07-30T07:33:18;10.00;;;1.30;;
55114;SDS011;41010;53.252;5.786;2023-07-30T07:35:45;10.02;;;1.20;;
55114;SDS011;41010;53.252;5.786;2023-07-30T07:38:12;9.70;;;1.27;;
55114;SDS011;41010;53.252;5.786;2023-07-30T07:40:41;5.38;;;1.13;;
55114;SDS011;41010;53.252;5.786;2023-07-30T07:43:08;9.07;;;1.20;;
55114;SDS011;41010;53.252;5.786;2023-07-30T07:45:35;10.13;;;1.80;;
55114;SDS011;41010;53.252;5.786;2023-07-30T07:48:03;8.32;;;1.40;;
55114;SDS011;41010;53.252;5.786;2023-07-30T07:50:30;10.60;;;1.35;;
55114;SDS011;41010;53.252;5.786;2023-07-30T07:52:57;7.68;;;1.30;;
55114;SDS011;41010;53.252;5.786;2023-07-30T07:55:24;10.93;;;1.40;;
55114;SDS011;41010;53.252;5.786;2023-07-30T07:57:53;7.55;;;1.50;;
55114;SDS011;41010;53.252;5.786;2023-07-30T08:00:20;7.85;;;1.20;;
55114;SDS011;41010;53.252;5.786;2023-07-30T08:02:47;9.50;;;1.35;;
55114;SDS011;41010;53.252;5.786;2023-07-30T08:05:15;4.38;;;0.90;;
55114;SDS011;41010;53.252;5.786;2023-07-30T08:07:43;13.88;;;1.50;;
55114;SDS011;41010;53.252;5.786;2023-07-30T08:10:11;7.70;;;1.35;;
55114;SDS011;41010;53.252;5.786;2023-07-30T08:12:38;9.38;;;1.25;;
55114;SDS011;41010;53.252;5.786;2023-07-30T08:15:07;5.97;;;1.27;;
55114;SDS011;41010;53.252;5.786;2023-07-30T08:17:35;7.75;;;1.33;;
55114;SDS011;41010;53.252;5.786;2023-07-30T08:20:02;7.30;;;1.40;;
55114;SDS011;41010;53.252;5.786;2023-07-30T08:22:30;7.03;;;1.13;;
55114;SDS011;41010;53.252;5.786;2023-07-30T08:24:57;10.48;;;1.73;;
55114;SDS011;41010;53.252;5.786;2023-07-30T08:27:24;10.57;;;1.33;;
55114;SDS011;41010;53.252;5.786;2023-07-30T08:29:51;6.80;;;1.25;;
55114;SDS011;41010;53.252;5.786;2023-07-30T08:32:20;7.50;;;1.55;;
55114;SDS011;41010;53.252;5.786;2023-07-30T08:34:47;3.70;;;1.00;;
55114;SDS011;41010;53.252;5.786;2023-07-30T08:37:14;5.18;;;1.00;;
55114;SDS011;41010;53.252;5.786;2023-07-30T08:39:42;6.28;;;1.27;;
55114;SDS011;41010;53.252;5.786;2023-07-30T08:42:09;8.02;;;1.42;;
55114;SDS011;41010;53.252;5.786;2023-07-30T08:44:36;6.18;;;1.33;;
55114;SDS011;41010;53.252;5.786;2023-07-30T08:47:03;4.88;;;1.25;;
55114;SDS011;41010;53.252;5.786;2023-07-30T08:49:32;5.88;;;1.27;;
55114;SDS011;41010;53.252;5.786;2023-07-30T08:51:59;4.65;;;1.10;;
55114;SDS011;41010;53.252;5.786;2023-07-30T08:56:56;3.83;;;0.88;;
55114;SDS011;41010;53.252;5.786;2023-07-30T08:59:24;2.95;;;0.98;;
55114;SDS011;41010;53.252;5.786;2023-07-30T09:01:51;4.40;;;1.38;;
55114;SDS011;41010;53.252;5.786;2023-07-30T09:04:19;4.32;;;1.20;;
55114;SDS011;41010;53.252;5.786;2023-07-30T09:06:49;6.25;;;0.88;;
55114;SDS011;41010;53.252;5.786;2023-07-30T09:09:16;7.75;;;0.98;;
55114;SDS011;41010;53.252;5.786;2023-07-30T09:11:43;5.90;;;1.30;;
55114;SDS011;41010;53.252;5.786;2023-07-30T09:14:19;9.82;;;1.50;;
55114;SDS011;41010;53.252;5.786;2023-07-30T09:16:47;7.35;;;0.95;;
55114;SDS011;41010;53.252;5.786;2023-07-30T09:19:16;7.78;;;1.20;;
55114;SDS011;41010;53.252;5.786;2023-07-30T09:21:43;6.22;;;1.00;;
55114;SDS011;41010;53.252;5.786;2023-07-30T09:24:12;7.55;;;1.23;;
55114;SDS011;41010;53.252;5.786;2023-07-30T09:26:41;5.38;;;1.42;;
55114;SDS011;41010;53.252;5.786;2023-07-30T09:29:09;6.53;;;1.00;;
55114;SDS011;41010;53.252;5.786;2023-07-30T09:31:46;8.82;;;1.20;;
55114;SDS011;41010;53.252;5.786;2023-07-30T09:34:17;4.38;;;1.20;;
55114;SDS011;41010;53.252;5.786;2023-07-30T09:36:45;10.77;;;1.70;;
55114;SDS011;41010;53.252;5.786;2023-07-30T09:39:18;6.00;;;1.38;;
55114;SDS011;41010;53.252;5.786;2023-07-30T09:41:46;6.05;;;1.27;;
55114;SDS011;41010;53.252;5.786;2023-07-30T09:44:15;7.60;;;1.20;;
55114;SDS011;41010;53.252;5.786;2023-07-30T09:46:43;8.88;;;1.17;;
55114;SDS011;41010;53.252;5.786;2023-07-30T09:49:10;4.00;;;0.95;;
55114;SDS011;41010;53.252;5.786;2023-07-30T09:51:38;4.05;;;1.48;;
55114;SDS011;41010;53.252;5.786;2023-07-30T09:54:06;5.43;;;1.33;;
55114;SDS011;41010;53.252;5.786;2023-07-30T09:56:35;6.57;;;1.30;;
55114;SDS011;41010;53.252;5.786;2023-07-30T09:59:02;7.55;;;1.52;;
55114;SDS011;41010;53.252;5.786;2023-07-30T10:01:30;6.22;;;0.80;;
55114;SDS011;41010;53.252;5.786;2023-07-30T10:03:57;6.65;;;1.08;;
55114;SDS011;41010;53.252;5.786;2023-07-30T10:06:25;4.63;;;1.33;;
55114;SDS011;41010;53.252;5.786;2023-07-30T10:08:54;8.38;;;1.30;;
55114;SDS011;41010;53.252;5.786;2023-07-30T10:11:23;6.95;;;1.05;;
55114;SDS011;41010;53.252;5.786;2023-07-30T10:13:53;10.90;;;1.70;;
55114;SDS011;41010;53.252;5.786;2023-07-30T10:16:24;4.93;;;0.98;;
55114;SDS011;41010;53.252;5.786;2023-07-30T10:18:55;8.50;;;1.42;;
55114;SDS011;41010;53.252;5.786;2023-07-30T10:21:23;4.90;;;1.00;;
55114;SDS011;41010;53.252;5.786;2023-07-30T10:23:57;7.25;;;1.00;;
55114;SDS011;41010;53.252;5.786;2023-07-30T10:26:26;4.63;;;1.00;;
55114;SDS011;41010;53.252;5.786;2023-07-30T10:31:41;6.72;;;1.00;;
55114;SDS011;41010;53.252;5.786;2023-07-30T10:34:09;4.70;;;1.10;;
55114;SDS011;41010;53.252;5.786;2023-07-30T10:36:40;6.90;;;1.40;;
55114;SDS011;41010;53.252;5.786;2023-07-30T10:39:12;5.35;;;1.48;;
55114;SDS011;41010;53.252;5.786;2023-07-30T10:41:40;9.00;;;1.45;;
55114;SDS011;41010;53.252;5.786;2023-07-30T10:44:07;4.35;;;0.93;;
55114;SDS011;41010;53.252;5.786;2023-07-30T10:46:45;8.13;;;1.50;;
55114;SDS011;41010;53.252;5.786;2023-07-30T10:49:12;9.43;;;1.30;;
55114;SDS011;41010;53.252;5.786;2023-07-30T10:51:40;4.97;;;1.30;;
55114;SDS011;41010;53.252;5.786;2023-07-30T10:54:07;6.15;;;1.40;;
55114;SDS011;41010;53.252;5.786;2023-07-30T10:56:34;6.53;;;0.98;;
55114;SDS011;41010;53.252;5.786;2023-07-30T10:59:02;6.20;;;1.40;;
55114;SDS011;41010;53.252;5.786;2023-07-30T11:01:30;5.55;;;1.17;;
55114;SDS011;41010;53.252;5.786;2023-07-30T11:03:58;11.32;;;1.38;;
55114;SDS011;41010;53.252;5.786;2023-07-30T11:06:26;7.65;;;1.38;;
55114;SDS011;41010;53.252;5.786;2023-07-30T11:08:53;4.47;;;1.17;;
55114;SDS011;41010;53.252;5.786;2023-07-30T11:11:21;6.53;;;0.95;;
55114;SDS011;41010;53.252;5.786;2023-07-30T11:13:50;3.88;;;1.00;;
55114;SDS011;41010;53.252;5.786;2023-07-30T11:16:17;5.22;;;1.02;;
55114;SDS011;41010;53.252;5.786;2023-07-30T11:18:44;4.82;;;1.15;;
55114;SDS011;41010;53.252;5.786;2023-07-30T11:21:14;5.60;;;1.02;;
55114;SDS011;41010;53.252;5.786;2023-07-30T11:23:42;6.10;;;1.00;;
55114;SDS011;41010;53.252;5.786;2023-07-30T11:26:13;7.30;;;1.00;;
55114;SDS011;41010;53.252;5.786;2023-07-30T11:28:40;9.60;;;0.98;;
55114;SDS011;41010;53.252;5.786;2023-07-30T11:31:08;5.20;;;0.90;;
55114;SDS011;41010;53.252;5.786;2023-07-30T11:33:35;5.65;;;1.08;;
55114;SDS011;41010;53.252;5.786;2023-07-30T11:36:03;5.43;;;1.10;;
55114;SDS011;41010;53.252;5.786;2023-07-30T11:38:31;6.43;;;1.30;;
55114;SDS011;41010;53.252;5.786;2023-07-30T11:40:59;6.18;;;1.27;;
55114;SDS011;41010;53.252;5.786;2023-07-30T11:43:26;3.72;;;1.13;;
55114;SDS011;41010;53.252;5.786;2023-07-30T11:46:07;3.75;;;1.05;;
55114;SDS011;41010;53.252;5.786;2023-07-30T11:48:34;5.55;;;0.88;;
55114;SDS011;41010;53.252;5.786;2023-07-30T11:51:02;6.00;;;1.00;;
55114;SDS011;41010;53.252;5.786;2023-07-30T11:53:46;4.20;;;0.90;;
55114;SDS011;41010;53.252;5.786;2023-07-30T11:56:18;4.35;;;1.00;;
55114;SDS011;41010;53.252;5.786;2023-07-30T11:58:46;5.05;;;1.20;;
55114;SDS011;41010;53.252;5.786;2023-07-30T12:01:14;5.72;;;1.00;;
55114;SDS011;41010;53.252;5.786;2023-07-30T12:03:41;3.05;;;1.10;;
55114;SDS011;41010;53.252;5.786;2023-07-30T12:06:09;5.65;;;0.90;;
55114;SDS011;41010;53.252;5.786;2023-07-30T12:08:36;5.25;;;1.10;;
55114;SDS011;41010;53.252;5.786;2023-07-30T12:11:05;3.70;;;0.98;;
55114;SDS011;41010;53.252;5.786;2023-07-30T12:13:33;5.60;;;1.25;;
55114;SDS011;41010;53.252;5.786;2023-07-30T12:16:00;4.63;;;0.98;;
55114;SDS011;41010;53.252;5.786;2023-07-30T12:18:28;4.80;;;0.70;;
55114;SDS011;41010;53.252;5.786;2023-07-30T12:20:55;3.10;;;1.10;;
55114;SDS011;41010;53.252;5.786;2023-07-30T12:23:23;6.15;;;1.10;;
55114;SDS011;41010;53.252;5.786;2023-07-30T12:25:50;4.53;;;0.95;;
55114;SDS011;41010;53.252;5.786;2023-07-30T12:28:19;7.28;;;0.88;;
55114;SDS011;41010;53.252;5.786;2023-07-30T12:30:46;5.03;;;1.30;;
55114;SDS011;41010;53.252;5.786;2023-07-30T12:33:14;4.28;;;1.10;;
55114;SDS011;41010;53.252;5.786;2023-07-30T12:35:41;4.13;;;1.20;;
55114;SDS011;41010;53.252;5.786;2023-07-30T12:38:09;5.15;;;0.80;;
55114;SDS011;41010;53.252;5.786;2023-07-30T12:40:36;5.93;;;1.00;;
55114;SDS011;41010;53.252;5.786;2023-07-30T12:43:03;5.20;;;1.23;;
55114;SDS011;41010;53.252;5.786;2023-07-30T12:45:32;3.33;;;0.90;;
55114;SDS011;41010;53.252;5.786;2023-07-30T12:48:00;6.60;;;1.30;;
55114;SDS011;41010;53.252;5.786;2023-07-30T12:50:27;3.65;;;1.00;;
55114;SDS011;41010;53.252;5.786;2023-07-30T12:52:55;5.00;;;1.10;;
55114;SDS011;41010;53.252;5.786;2023-07-30T12:55:22;4.75;;;1.10;;
55114;SDS011;41010;53.252;5.786;2023-07-30T12:57:49;2.97;;;0.82;;
55114;SDS011;41010;53.252;5.786;2023-07-30T13:00:16;5.75;;;1.15;;
55114;SDS011;41010;53.252;5.786;2023-07-30T13:02:45;2.85;;;0.73;;
55114;SDS011;41010;53.252;5.786;2023-07-30T13:05:12;3.70;;;1.20;;
55114;SDS011;41010;53.252;5.786;2023-07-30T13:07:41;6.15;;;1.02;;
55114;SDS011;41010;53.252;5.786;2023-07-30T13:10:08;6.47;;;1.42;;
55114;SDS011;41010;53.252;5.786;2023-07-30T13:12:36;6.68;;;1.33;;
55114;SDS011;41010;53.252;5.786;2023-07-30T13:15:03;4.45;;;1.40;;
55114;SDS011;41010;53.252;5.786;2023-07-30T13:17:31;6.50;;;0.90;;
55114;SDS011;41010;53.252;5.786;2023-07-30T13:19:59;5.00;;;0.90;;
55114;SDS011;41010;53.252;5.786;2023-07-30T13:22:27;7.43;;;0.90;;
55114;SDS011;41010;53.252;5.786;2023-07-30T13:24:54;5.03;;;0.90;;
55114;SDS011;41010;53.252;5.786;2023-07-30T13:27:21;4.63;;;1.02;;
55114;SDS011;41010;53.252;5.786;2023-07-30T13:29:49;6.95;;;1.23;;
55114;SDS011;41010;53.252;5.786;2023-07-30T13:32:16;6.63;;;1.15;;
55114;SDS011;41010;53.252;5.786;2023-07-30T13:34:43;3.83;;;1.10;;
55114;SDS011;41010;53.252;5.786;2023-07-30T13:37:12;1.98;;;1.00;;
55114;SDS011;41010;53.252;5.786;2023-07-30T13:39:39;4.13;;;0.93;;
55114;SDS011;41010;53.252;5.786;2023-07-30T13:42:06;3.35;;;0.98;;
55114;SDS011;41010;53.252;5.786;2023-07-30T13:44:33;2.25;;;0.90;;
55114;SDS011;41010;53.252;5.786;2023-07-30T13:47:01;3.08;;;0.90;;
55114;SDS011;41010;53.252;5.786;2023-07-30T13:49:28;4.30;;;1.05;;
55114;SDS011;41010;53.252;5.786;2023-07-30T13:51:55;8.35;;;0.90;;
55114;SDS011;41010;53.252;5.786;2023-07-30T13:54:24;3.33;;;0.88;;
55114;SDS011;41010;53.252;5.786;2023-07-30T13:56:51;2.42;;;0.85;;
55114;SDS011;41010;53.252;5.786;2023-07-30T13:59:18;2.85;;;0.75;;
55114;SDS011;41010;53.252;5.786;2023-07-30T14:01:46;2.60;;;0.80;;
55114;SDS011;41010;53.252;5.786;2023-07-30T14:04:13;2.97;;;0.82;;
55114;SDS011;41010;53.252;5.786;2023-07-30T14:06:40;5.60;;;1.30;;
55114;SDS011;41010;53.252;5.786;2023-07-30T14:09:08;6.43;;;1.00;;
55114;SDS011;41010;53.252;5.786;2023-07-30T14:11:36;3.35;;;1.02;;
55114;SDS011;41010;53.252;5.786;2023-07-30T14:14:06;3.75;;;0.98;;
55114;SDS011;41010;53.252;5.786;2023-07-30T14:16:33;5.30;;;1.02;;
55114;SDS011;41010;53.252;5.786;2023-07-30T14:19:00;4.35;;;0.98;;
55114;SDS011;41010;53.252;5.786;2023-07-30T14:21:28;2.13;;;0.88;;
55114;SDS011;41010;53.252;5.786;2023-07-30T14:23:55;3.05;;;1.13;;
55114;SDS011;41010;53.252;5.786;2023-07-30T14:26:22;2.88;;;1.00;;
55114;SDS011;41010;53.252;5.786;2023-07-30T14:28:51;9.20;;;1.02;;
55114;SDS011;41010;53.252;5.786;2023-07-30T14:31:18;4.60;;;1.05;;
55114;SDS011;41010;53.252;5.786;2023-07-30T14:33:45;3.50;;;0.90;;
55114;SDS011;41010;53.252;5.786;2023-07-30T14:36:13;6.03;;;1.45;;
55114;SDS011;41010;53.252;5.786;2023-07-30T14:38:40;6.15;;;1.17;;
55114;SDS011;41010;53.252;5.786;2023-07-30T14:41:07;6.57;;;0.90;;
55114;SDS011;41010;53.252;5.786;2023-07-30T14:43:36;4.38;;;0.60;;
55114;SDS011;41010;53.252;5.786;2023-07-30T14:46:04;8.60;;;0.82;;
55114;SDS011;41010;53.252;5.786;2023-07-30T14:48:38;4.82;;;0.82;;
55114;SDS011;41010;53.252;5.786;2023-07-30T14:51:05;3.40;;;0.63;;